Time,TemperatureF,DewpointF,PressureIn,WindDirection,WindDirectionDegrees,WindSpeedMPH,WindSpeedGustMPH,Humidity,HourlyPrecipIn,Conditions,Clouds,dailyrainin,SoftwareType,DateUTC
2013-01-08 00:02:00,28.0,15.0,-100.00,West,270,34.0,44.0,59,0.00,,,-99.99,,2013-01-08 07:02:00,
2013-01-08 00:12:00,28.0,16.0,-100.00,West,268,33.0,52.0,61,0.00,,,-99.99,,2013-01-08 07:12:00,
2013-01-08 00:22:00,27.0,16.0,-100.00,West,265,35.0,48.0,61,0.00,,,-99.99,,2013-01-08 07:22:00,
2013-01-08 00:32:00,27.0,17.0,-100.00,WSW,257,40.0,55.0,63,0.00,,,-99.99,,2013-01-08 07:32:00,
2013-01-08 00:42:00,27.0,16.0,-100.00,WSW,254,38.0,55.0,64,0.00,,,-99.99,,2013-01-08 07:42:00,
2013-01-08 00:52:00,27.0,17.0,-100.00,WSW,247,36.0,49.0,66,0.00,,,-99.99,,2013-01-08 07:52:00,
2013-01-08 01:02:00,27.0,18.0,-100.00,WSW,246,36.0,49.0,66,0.00,,,-99.99,,2013-01-08 08:02:00,
2013-01-08 01:12:00,27.0,18.0,-100.00,WSW,247,35.0,49.0,66,0.00,,,-99.99,,2013-01-08 08:12:00,
2013-01-08 01:22:00,27.0,18.0,-100.00,WSW,246,39.0,50.0,67,0.00,,,-99.99,,2013-01-08 08:22:00,
2013-01-08 01:32:00,27.0,18.0,-100.00,WSW,250,38.0,54.0,67,0.00,,,-99.99,,2013-01-08 08:32:00,
2013-01-08 01:42:00,27.0,18.0,-100.00,WSW,257,36.0,48.0,68,0.00,,,-99.99,,2013-01-08 08:42:00,
2013-01-08 01:52:00,27.0,18.0,-100.00,West,274,34.0,49.0,67,0.00,,,-99.99,,2013-01-08 08:52:00,
2013-01-08 02:02:00,27.0,18.0,-100.00,West,271,29.0,45.0,69,0.00,,,-99.99,,2013-01-08 09:02:00,
2013-01-08 02:12:00,27.0,18.0,-100.00,West,270,33.0,45.0,69,0.00,,,-99.99,,2013-01-08 09:12:00,
2013-01-08 02:22:00,27.0,18.0,-100.00,West,281,32.0,42.0,69,0.00,,,-99.99,,2013-01-08 09:22:00,
2013-01-08 02:32:00,27.0,18.0,-100.00,West,275,34.0,50.0,70,0.00,,,-99.99,,2013-01-08 09:32:00,
2013-01-08 02:42:00,27.0,18.0,-100.00,West,272,33.0,49.0,69,0.00,,,-99.99,,2013-01-08 09:42:00,
2013-01-08 02:52:00,27.0,18.0,-100.00,West,265,40.0,55.0,68,0.00,,,-99.99,,2013-01-08 09:52:00,
2013-01-08 03:02:00,27.0,18.0,-100.00,West,267,36.0,49.0,69,0.00,,,-99.99,,2013-01-08 10:02:00,
2013-01-08 03:12:00,27.0,18.0,-100.00,West,270,35.0,49.0,70,0.00,,,-99.99,,2013-01-08 10:12:00,
2013-01-08 03:22:00,26.0,18.0,-100.00,West,260,32.0,42.0,70,0.00,,,-99.99,,2013-01-08 10:22:00,
2013-01-08 03:32:00,26.0,18.0,-100.00,WSW,258,34.0,45.0,71,0.00,,,-99.99,,2013-01-08 10:32:00,
2013-01-08 03:42:00,26.0,18.0,-100.00,WSW,251,34.0,46.0,71,0.00,,,-99.99,,2013-01-08 10:42:00,
2013-01-08 03:52:00,26.0,18.0,-100.00,WSW,250,34.0,47.0,71,0.00,,,-99.99,,2013-01-08 10:52:00,
2013-01-08 04:02:00,26.0,18.0,-100.00,WSW,240,38.0,53.0,71,0.00,,,-99.99,,2013-01-08 11:02:00,
2013-01-08 04:12:00,26.0,18.0,-100.00,WSW,241,37.0,49.0,71,0.00,,,-99.99,,2013-01-08 11:12:00,
2013-01-08 04:22:00,26.0,18.0,-100.00,WSW,243,37.0,48.0,72,0.00,,,-99.99,,2013-01-08 11:22:00,
2013-01-08 04:32:00,26.0,18.0,-100.00,WSW,243,30.0,48.0,72,0.00,,,-99.99,,2013-01-08 11:32:00,
2013-01-08 04:42:00,26.0,18.0,-100.00,WSW,241,29.0,42.0,71,0.00,,,-99.99,,2013-01-08 11:42:00,
2013-01-08 04:53:00,27.0,17.0,-100.00,WSW,239,32.0,46.0,68,0.00,,,-99.99,,2013-01-08 11:53:00,
2013-01-08 05:02:00,27.0,17.0,-100.00,WSW,243,35.0,48.0,68,0.00,,,-99.99,,2013-01-08 12:02:00,
2013-01-08 05:12:00,27.0,17.0,-100.00,WSW,248,35.0,47.0,67,0.00,,,-99.99,,2013-01-08 12:12:00,
2013-01-08 05:22:00,28.0,17.0,-100.00,West,261,32.0,41.0,62,0.00,,,-99.99,,2013-01-08 12:22:00,
2013-01-08 05:32:00,27.0,17.0,-100.00,West,270,26.0,38.0,67,0.00,,,-99.99,,2013-01-08 12:32:00,
2013-01-08 05:42:00,27.0,17.0,-100.00,West,268,26.0,37.0,65,0.00,,,-99.99,,2013-01-08 12:42:00,
2013-01-08 05:53:00,27.0,17.0,-100.00,WSW,257,30.0,39.0,66,0.00,,,-99.99,,2013-01-08 12:53:00,
2013-01-08 06:03:00,26.0,18.0,-100.00,WSW,253,29.0,39.0,70,0.00,,,-99.99,,2013-01-08 13:03:00,
2013-01-08 06:12:00,26.0,18.0,-100.00,WSW,250,29.0,39.0,72,0.00,,,-99.99,,2013-01-08 13:12:00,
2013-01-08 06:22:00,25.0,18.0,-100.00,WSW,253,26.0,33.0,75,0.00,,,-99.99,,2013-01-08 13:22:00,
2013-01-08 06:32:00,25.0,19.0,-100.00,WSW,254,26.0,35.0,77,0.00,,,-99.99,,2013-01-08 13:32:00,
2013-01-08 06:42:00,25.0,18.0,-100.00,WSW,253,26.0,35.0,76,0.00,,,-99.99,,2013-01-08 13:42:00,
2013-01-08 06:52:00,25.0,18.0,-100.00,WSW,248,29.0,39.0,76,0.00,,,-99.99,,2013-01-08 13:52:00,
2013-01-08 07:02:00,25.0,18.0,-100.00,WSW,256,32.0,47.0,75,0.00,,,-99.99,,2013-01-08 14:02:00,
2013-01-08 07:12:00,24.0,19.0,-100.00,West,260,33.0,47.0,79,0.00,,,-99.99,,2013-01-08 14:12:00,
2013-01-08 07:23:00,24.0,19.0,-100.00,West,267,34.0,43.0,84,0.00,,,-99.99,,2013-01-08 14:23:00,
2013-01-08 07:33:00,23.0,20.0,-100.00,West,278,29.0,42.0,86,0.00,,,-99.99,,2013-01-08 14:33:00,
2013-01-08 07:53:00,24.0,19.0,-100.00,West,281,31.0,43.0,82,0.00,,,-99.99,,2013-01-08 14:53:00,
2013-01-08 08:02:00,24.0,19.0,-100.00,West,264,34.0,47.0,82,0.00,,,-99.99,,2013-01-08 15:02:00,
2013-01-08 08:12:00,24.0,19.0,-100.00,West,261,32.0,46.0,83,0.00,,,-99.99,,2013-01-08 15:12:00,
2013-01-08 08:22:00,24.0,19.0,-100.00,West,260,34.0,49.0,84,0.00,,,-99.99,,2013-01-08 15:22:00,
2013-01-08 08:33:00,24.0,20.0,-100.00,West,267,34.0,50.0,84,0.00,,,-99.99,,2013-01-08 15:33:00,
2013-01-08 08:42:00,24.0,20.0,-100.00,West,265,34.0,47.0,83,0.00,,,-99.99,,2013-01-08 15:42:00,
2013-01-08 08:52:00,24.0,20.0,-100.00,West,263,31.0,45.0,83,0.00,,,-99.99,,2013-01-08 15:52:00,
2013-01-08 09:03:00,25.0,20.0,-100.00,West,264,33.0,47.0,81,0.00,,,-99.99,,2013-01-08 16:03:00,
2013-01-08 09:12:00,24.0,20.0,-100.00,West,263,32.0,47.0,81,0.00,,,-99.99,,2013-01-08 16:12:00,
2013-01-08 09:22:00,25.0,19.0,-100.00,West,272,29.0,42.0,79,0.00,,,-99.99,,2013-01-08 16:22:00,
2013-01-08 09:33:00,25.0,19.0,-100.00,West,280,28.0,41.0,78,0.00,,,-99.99,,2013-01-08 16:33:00,
2013-01-08 09:42:00,25.0,20.0,-100.00,West,270,29.0,42.0,80,0.00,,,-99.99,,2013-01-08 16:42:00,
2013-01-08 09:52:00,25.0,19.0,-100.00,West,263,34.0,52.0,78,0.00,,,-99.99,,2013-01-08 16:52:00,
2013-01-08 10:03:00,26.0,20.0,-100.00,West,268,36.0,51.0,79,0.00,,,-99.99,,2013-01-08 17:03:00,
2013-01-08 10:12:00,26.0,20.0,-100.00,West,267,32.0,49.0,78,0.00,,,-99.99,,2013-01-08 17:12:00,
2013-01-08 10:23:00,26.0,19.0,-100.00,West,281,32.0,50.0,75,0.00,,,-99.99,,2013-01-08 17:23:00,
2013-01-08 10:33:00,26.0,19.0,-100.00,West,271,33.0,49.0,75,0.00,,,-99.99,,2013-01-08 17:33:00,
2013-01-08 10:43:00,27.0,20.0,-100.00,West,280,32.0,54.0,75,0.00,,,-99.99,,2013-01-08 17:43:00,
2013-01-08 10:53:00,27.0,19.0,-100.00,West,280,38.0,55.0,71,0.00,,,-99.99,,2013-01-08 17:53:00,
2013-01-08 11:03:00,27.0,19.0,-100.00,West,278,34.0,56.0,71,0.00,,,-99.99,,2013-01-08 18:03:00,
2013-01-08 11:12:00,27.0,19.0,-100.00,West,275,35.0,49.0,70,0.00,,,-99.99,,2013-01-08 18:12:00,
2013-01-08 11:23:00,27.0,19.0,-100.00,West,280,30.0,49.0,70,0.00,,,-99.99,,2013-01-08 18:23:00,
2013-01-08 11:33:00,28.0,19.0,-100.00,West,270,29.0,43.0,70,0.00,,,-99.99,,2013-01-08 18:33:00,
2013-01-08 11:43:00,28.0,19.0,-100.00,West,260,31.0,44.0,70,0.00,,,-99.99,,2013-01-08 18:43:00,
2013-01-08 11:53:00,27.0,19.0,-100.00,West,260,32.0,45.0,70,0.00,,,-99.99,,2013-01-08 18:53:00,
2013-01-08 12:03:00,27.0,18.0,-100.00,West,263,32.0,49.0,69,0.00,,,-99.99,,2013-01-08 19:03:00,
2013-01-08 12:12:00,28.0,19.0,-100.00,West,260,32.0,47.0,69,0.00,,,-99.99,,2013-01-08 19:12:00,
2013-01-08 12:22:00,28.0,18.0,-100.00,WSW,254,36.0,50.0,68,0.00,,,-99.99,,2013-01-08 19:22:00,
2013-01-08 12:32:00,27.0,18.0,-100.00,West,260,34.0,48.0,69,0.00,,,-99.99,,2013-01-08 19:32:00,
2013-01-08 12:42:00,28.0,18.0,-100.00,West,265,38.0,52.0,67,0.00,,,-99.99,,2013-01-08 19:42:00,
2013-01-08 12:53:00,28.0,19.0,-100.00,West,264,39.0,52.0,69,0.00,,,-99.99,,2013-01-08 19:53:00,
2013-01-08 13:03:00,28.0,18.0,-100.00,West,267,35.0,50.0,67,0.00,,,-99.99,,2013-01-08 20:03:00,
2013-01-08 13:12:00,28.0,18.0,-100.00,West,270,35.0,50.0,67,0.00,,,-99.99,,2013-01-08 20:12:00,
2013-01-08 13:22:00,28.0,18.0,-100.00,West,268,35.0,47.0,67,0.00,,,-99.99,,2013-01-08 20:22:00,
2013-01-08 13:33:00,28.0,18.0,-100.00,West,264,37.0,52.0,66,0.00,,,-99.99,,2013-01-08 20:33:00,
2013-01-08 13:43:00,28.0,18.0,-100.00,West,267,35.0,52.0,67,0.00,,,-99.99,,2013-01-08 20:43:00,
2013-01-08 13:53:00,28.0,18.0,-100.00,West,267,38.0,50.0,65,0.00,,,-99.99,,2013-01-08 20:53:00,
2013-01-08 14:03:00,28.0,18.0,-100.00,West,270,37.0,48.0,66,0.00,,,-99.99,,2013-01-08 21:03:00,
2013-01-08 14:12:00,28.0,18.0,-100.00,West,270,37.0,54.0,66,0.00,,,-99.99,,2013-01-08 21:12:00,
2013-01-08 14:22:00,28.0,18.0,-100.00,West,270,39.0,58.0,65,0.00,,,-99.99,,2013-01-08 21:22:00,
2013-01-08 14:33:00,28.0,18.0,-100.00,West,270,37.0,52.0,65,0.00,,,-99.99,,2013-01-08 21:33:00,
2013-01-08 14:43:00,28.0,18.0,-100.00,West,265,35.0,51.0,66,0.00,,,-99.99,,2013-01-08 21:43:00,
2013-01-08 14:53:00,28.0,18.0,-100.00,West,265,35.0,47.0,66,0.00,,,-99.99,,2013-01-08 21:53:00,
2013-01-08 15:03:00,27.0,18.0,-100.00,West,265,37.0,48.0,67,0.00,,,-99.99,,2013-01-08 22:03:00,
2013-01-08 15:12:00,27.0,18.0,-100.00,West,265,39.0,49.0,66,0.00,,,-99.99,,2013-01-08 22:12:00,
2013-01-08 15:22:00,27.0,18.0,-100.00,WSW,257,39.0,53.0,68,0.00,,,-99.99,,2013-01-08 22:22:00,
2013-01-08 15:32:00,27.0,18.0,-100.00,West,261,37.0,54.0,68,0.00,,,-99.99,,2013-01-08 22:32:00,
2013-01-08 15:42:00,27.0,18.0,-100.00,West,261,39.0,50.0,68,0.00,,,-99.99,,2013-01-08 22:42:00,
2013-01-08 15:52:00,27.0,18.0,-100.00,West,264,38.0,52.0,69,0.00,,,-99.99,,2013-01-08 22:52:00,
2013-01-08 16:02:00,27.0,18.0,-100.00,West,265,34.0,50.0,70,0.00,,,-99.99,,2013-01-08 23:02:00,
2013-01-08 16:12:00,27.0,18.0,-100.00,West,264,35.0,50.0,71,0.00,,,-99.99,,2013-01-08 23:12:00,
2013-01-08 16:22:00,26.0,18.0,-100.00,West,267,33.0,47.0,72,0.00,,,-99.99,,2013-01-08 23:22:00,
2013-01-08 16:32:00,26.0,19.0,-100.00,West,268,32.0,47.0,72,0.00,,,-99.99,,2013-01-08 23:32:00,
2013-01-08 16:43:00,26.0,19.0,-100.00,West,267,33.0,44.0,73,0.00,,,-99.99,,2013-01-08 23:43:00,
2013-01-08 16:52:00,26.0,19.0,-100.00,West,267,29.0,44.0,75,0.00,,,-99.99,,2013-01-08 23:52:00,
2013-01-08 17:02:00,26.0,19.0,-100.00,West,267,26.0,37.0,75,0.00,,,-99.99,,2013-01-09 00:02:00,
2013-01-08 17:12:00,26.0,19.0,-100.00,West,267,26.0,35.0,75,0.00,,,-99.99,,2013-01-09 00:12:00,
2013-01-08 17:22:00,26.0,19.0,-100.00,West,268,24.0,34.0,74,0.00,,,-99.99,,2013-01-09 00:22:00,
2013-01-08 17:33:00,26.0,19.0,-100.00,West,263,19.0,40.0,75,0.00,,,-99.99,,2013-01-09 00:33:00,
2013-01-08 17:42:00,26.0,18.0,-100.00,West,267,24.0,39.0,74,0.00,,,-99.99,,2013-01-09 00:42:00,
2013-01-08 17:52:00,26.0,19.0,-100.00,West,277,21.0,34.0,74,0.00,,,-99.99,,2013-01-09 00:52:00,
2013-01-08 18:02:00,26.0,19.0,-100.00,West,271,21.0,34.0,75,0.00,,,-99.99,,2013-01-09 01:02:00,
2013-01-08 18:12:00,26.0,19.0,-100.00,West,264,21.0,37.0,75,0.00,,,-99.99,,2013-01-09 01:12:00,
2013-01-08 18:22:00,26.0,19.0,-100.00,WSW,257,30.0,49.0,74,0.00,,,-99.99,,2013-01-09 01:22:00,
2013-01-08 18:32:00,26.0,19.0,-100.00,WSW,247,36.0,50.0,75,0.00,,,-99.99,,2013-01-09 01:32:00,
2013-01-08 18:42:00,26.0,19.0,-100.00,WSW,251,39.0,50.0,75,0.00,,,-99.99,,2013-01-09 01:42:00,
2013-01-08 18:52:00,26.0,19.0,-100.00,WSW,256,38.0,54.0,75,0.00,,,-99.99,,2013-01-09 01:52:00,
2013-01-08 19:02:00,26.0,19.0,-100.00,WSW,258,36.0,51.0,75,0.00,,,-99.99,,2013-01-09 02:02:00,
2013-01-08 19:12:00,26.0,19.0,-100.00,WSW,257,40.0,54.0,75,0.00,,,-99.99,,2013-01-09 02:12:00,
2013-01-08 19:22:00,26.0,19.0,-100.00,WSW,247,41.0,57.0,74,0.00,,,-99.99,,2013-01-09 02:22:00,
2013-01-08 19:32:00,26.0,19.0,-100.00,WSW,241,40.0,54.0,74,0.00,,,-99.99,,2013-01-09 02:32:00,
2013-01-08 19:42:00,26.0,19.0,-100.00,WSW,244,36.0,54.0,74,0.00,,,-99.99,,2013-01-09 02:42:00,
2013-01-08 19:52:00,26.0,18.0,-100.00,WSW,246,32.0,49.0,72,0.00,,,-99.99,,2013-01-09 02:52:00,
2013-01-08 20:03:00,27.0,18.0,-100.00,WSW,248,32.0,45.0,69,0.00,,,-99.99,,2013-01-09 03:03:00,
2013-01-08 20:12:00,27.0,18.0,-100.00,WSW,254,34.0,47.0,68,0.00,,,-99.99,,2013-01-09 03:12:00,
2013-01-08 20:22:00,26.0,19.0,-100.00,West,265,38.0,55.0,73,0.00,,,-99.99,,2013-01-09 03:22:00,
2013-01-08 20:33:00,26.0,19.0,-100.00,West,260,40.0,56.0,73,0.00,,,-99.99,,2013-01-09 03:33:00,
2013-01-08 20:42:00,26.0,19.0,-100.00,WSW,258,40.0,57.0,74,0.00,,,-99.99,,2013-01-09 03:42:00,
2013-01-08 20:52:00,26.0,19.0,-100.00,West,260,35.0,49.0,74,0.00,,,-99.99,,2013-01-09 03:52:00,
2013-01-08 21:02:00,26.0,19.0,-100.00,WSW,256,36.0,52.0,74,0.00,,,-99.99,,2013-01-09 04:02:00,
2013-01-08 21:12:00,27.0,19.0,-100.00,WSW,254,38.0,56.0,74,0.00,,,-99.99,,2013-01-09 04:12:00,
2013-01-08 21:22:00,27.0,19.0,-100.00,WSW,250,39.0,52.0,72,0.00,,,-99.99,,2013-01-09 04:22:00,
2013-01-08 21:32:00,27.0,19.0,-100.00,WSW,250,41.0,55.0,72,0.00,,,-99.99,,2013-01-09 04:32:00,
2013-01-08 21:42:00,27.0,19.0,-100.00,WSW,250,42.0,54.0,72,0.00,,,-99.99,,2013-01-09 04:42:00,
2013-01-08 21:52:00,27.0,19.0,-100.00,WSW,247,41.0,55.0,72,0.00,,,-99.99,,2013-01-09 04:52:00,
2013-01-08 22:03:00,27.0,19.0,-100.00,WSW,246,33.0,45.0,71,0.00,,,-99.99,,2013-01-09 05:03:00,
2013-01-08 22:12:00,28.0,19.0,-100.00,WSW,243,37.0,55.0,69,0.00,,,-99.99,,2013-01-09 05:12:00,
2013-01-08 22:22:00,28.0,19.0,-100.00,WSW,246,34.0,49.0,68,0.00,,,-99.99,,2013-01-09 05:22:00,
2013-01-08 22:33:00,28.0,18.0,-100.00,WSW,246,35.0,49.0,65,0.00,,,-99.99,,2013-01-09 05:33:00,
2013-01-08 22:42:00,28.0,18.0,-100.00,WSW,243,31.0,43.0,66,0.00,,,-99.99,,2013-01-09 05:42:00,
2013-01-08 22:52:00,28.0,18.0,-100.00,WSW,237,32.0,45.0,66,0.00,,,-99.99,,2013-01-09 05:52:00,
2013-01-08 23:02:00,29.0,18.0,-100.00,WSW,241,31.0,46.0,63,0.00,,,-99.99,,2013-01-09 06:02:00,
2013-01-08 23:12:00,29.0,18.0,-100.00,WSW,246,34.0,47.0,63,0.00,,,-99.99,,2013-01-09 06:12:00,
2013-01-08 23:22:00,29.0,18.0,-100.00,WSW,244,31.0,43.0,65,0.00,,,-99.99,,2013-01-09 06:22:00,
2013-01-08 23:32:00,29.0,18.0,-100.00,WSW,246,32.0,41.0,64,0.00,,,-99.99,,2013-01-09 06:32:00,
2013-01-08 23:42:00,29.0,18.0,-100.00,WSW,243,33.0,47.0,65,0.00,,,-99.99,,2013-01-09 06:42:00,
2013-01-08 23:52:00,29.0,18.0,-100.00,WSW,244,32.0,46.0,65,0.00,,,-99.99,,2013-01-09 06:52:00,